Time;durP1;ratioP1;P1;durP2;ratioP2;P2;SDS_P1;SDS_P2;PMS_P1;PMS_P2;Temp;Humidity;BMP_temperature;BMP_pressure;BME280_temperature;BME280_humidity;BME280_pressure;Samples;Min_cycle;Max_cycle;Signal;HPM_P1;HPM_P2
2022/10/19 00:01:49;;;;;;;10.32;6.80;;;15.90;99.90;;;;;;5034473;28;20021;-83
2022/10/19 00:04:14;;;;;;;9.00;6.32;;;15.80;99.90;;;;;;5034275;28;20048;-84
2022/10/19 00:06:40;;;;;;;10.45;6.57;;;15.80;99.90;;;;;;5016420;28;20026;-83
2022/10/19 00:09:07;;;;;;;11.52;7.10;;;15.80;99.90;;;;;;5033600;28;20056;-83
2022/10/19 00:11:34;;;;;;;8.38;6.70;;;15.80;99.90;;;;;;5016178;28;20029;-82
2022/10/19 00:14:01;;;;;;;9.02;6.25;;;15.80;99.90;;;;;;5016464;28;20026;-84
2022/10/19 00:16:30;;;;;;;12.90;7.43;;;15.80;99.90;;;;;;5034474;28;20029;-82
2022/10/19 00:18:57;;;;;;;10.55;7.10;;;15.80;99.90;;;;;;5016772;28;20032;-84
2022/10/19 00:21:23;;;;;;;12.30;7.70;;;15.80;99.90;;;;;;5016811;28;20064;-84
2022/10/19 00:23:48;;;;;;;11.93;7.53;;;15.70;99.90;;;;;;5034310;28;20029;-84
2022/10/19 00:26:14;;;;;;;10.65;7.90;;;15.70;99.90;;;;;;5018781;28;20025;-83
2022/10/19 00:28:41;;;;;;;9.27;7.05;;;15.60;99.90;;;;;;5038094;28;20091;-84
2022/10/19 00:31:10;;;;;;;12.80;7.72;;;15.60;99.90;;;;;;5038068;28;20037;-83
2022/10/19 00:33:36;;;;;;;9.40;7.43;;;15.60;99.90;;;;;;5020434;28;20469;-84
2022/10/19 00:36:03;;;;;;;10.30;7.28;;;15.60;99.90;;;;;;5037569;28;20043;-82
2022/10/19 00:38:29;;;;;;;12.27;7.30;;;15.50;99.90;;;;;;5020235;28;20120;-84
2022/10/19 00:40:55;;;;;;;11.35;7.10;;;15.50;99.90;;;;;;5037917;28;20439;-83
2022/10/19 00:43:28;;;;;;;12.07;7.47;;;15.50;99.90;;;;;;5019831;28;20113;-82
2022/10/19 00:45:54;;;;;;;11.70;7.80;;;15.40;99.90;;;;;;5020269;28;20056;-82
2022/10/19 00:48:30;;;;;;;10.32;7.32;;;15.40;99.90;;;;;;5037653;28;20412;-82
2022/10/19 00:50:58;;;;;;;12.73;7.75;;;15.40;99.90;;;;;;5020153;28;20441;-83
2022/10/19 00:53:27;;;;;;;9.50;7.00;;;15.30;99.90;;;;;;5019875;28;20032;-83
2022/10/19 00:55:53;;;;;;;11.70;6.75;;;15.20;99.90;;;;;;5020111;28;20025;-84
2022/10/19 00:58:19;;;;;;;10.18;6.95;;;15.10;99.90;;;;;;5037998;28;20037;-83
2022/10/19 01:00:45;;;;;;;13.25;7.18;;;15.00;99.90;;;;;;5037214;28;20453;-82
2022/10/19 01:03:12;;;;;;;10.57;7.15;;;14.90;99.90;;;;;;5037347;28;20025;-83
2022/10/19 01:05:38;;;;;;;13.45;8.55;;;14.80;99.90;;;;;;5019533;28;20044;-83
2022/10/19 01:08:05;;;;;;;11.85;7.90;;;14.80;99.90;;;;;;5037105;28;20033;-83
2022/10/19 01:11:10;;;;;;;12.60;7.20;;;14.70;99.90;;;;;;5018874;28;20493;-83
2022/10/19 01:13:54;;;;;;;11.52;8.27;;;14.70;99.90;;;;;;5019733;28;20030;-82
2022/10/19 01:16:32;;;;;;;11.45;7.68;;;14.60;99.90;;;;;;5019265;28;20053;-83
2022/10/19 01:19:22;;;;;;;9.20;6.90;;;14.60;99.90;;;;;;5019671;28;20037;-83
2022/10/19 01:22:18;;;;;;;12.82;7.72;;;14.60;99.90;;;;;;5036912;28;20022;-84
2022/10/19 01:24:56;;;;;;;9.93;6.82;;;14.60;99.90;;;;;;4990580;28;20069;-82
2022/10/19 01:27:35;;;;;;;8.60;7.00;;;14.60;99.90;;;;;;5036941;28;20123;-84
2022/10/19 01:30:07;;;;;;;;;;;14.60;99.90;;;;;;5020090;28;20037;-83
2022/10/19 01:33:06;;;;;;;9.20;6.55;;;14.60;99.90;;;;;;5019180;28;19905;-84
2022/10/19 01:35:43;;;;;;;10.48;6.90;;;14.70;99.90;;;;;;4949346;28;20445;-83
2022/10/19 01:38:27;;;;;;;9.02;6.65;;;14.70;99.90;;;;;;5020659;28;20469;-83
2022/10/19 01:40:58;;;;;;;9.95;6.88;;;14.70;99.90;;;;;;5024923;28;20097;-84
2022/10/19 01:43:39;;;;;;;8.95;6.40;;;14.70;99.90;;;;;;5042054;28;20056;-84
2022/10/19 01:46:04;;;;;;;11.15;7.25;;;14.70;99.90;;;;;;5019260;28;20026;-84
2022/10/19 01:48:34;;;;;;;12.48;7.03;;;14.70;99.90;;;;;;5018938;28;20039;-84
2022/10/19 01:51:05;;;;;;;9.60;7.00;;;14.70;99.90;;;;;;5018927;28;20026;-83
2022/10/19 01:53:38;;;;;;;11.35;6.90;;;14.70;99.90;;;;;;5019191;28;20071;-84
2022/10/19 01:56:05;;;;;;;8.93;6.82;;;14.60;99.90;;;;;;5036681;28;20037;-83
2022/10/19 01:58:34;;;;;;;10.75;6.18;;;14.60;99.90;;;;;;5036334;28;20032;-83
2022/10/19 02:01:05;;;;;;;11.57;6.10;;;14.60;99.90;;;;;;5018643;28;20032;-83
2022/10/19 02:03:33;;;;;;;8.13;6.25;;;14.60;99.90;;;;;;5018996;28;20034;-85
2022/10/19 02:06:01;;;;;;;9.95;6.57;;;14.60;99.90;;;;;;5036375;28;20033;-84
2022/10/19 02:08:35;;;;;;;11.05;6.38;;;14.50;99.90;;;;;;5035870;28;20064;-82
2022/10/19 02:11:01;;;;;;;9.32;5.68;;;14.50;99.90;;;;;;5018426;28;20053;-83
2022/10/19 02:13:29;;;;;;;8.55;5.78;;;14.50;99.90;;;;;;5018472;28;20022;-84
2022/10/19 02:15:58;;;;;;;7.15;5.50;;;14.50;99.90;;;;;;5018583;28;20377;-84
2022/10/19 02:18:32;;;;;;;9.50;5.57;;;14.50;99.90;;;;;;5036427;28;20030;-85
2022/10/19 02:21:00;;;;;;;9.68;5.28;;;14.50;99.90;;;;;;5036253;28;20034;-84
2022/10/19 02:23:26;;;;;;;10.43;5.75;;;14.50;99.90;;;;;;5018511;28;20060;-84
2022/10/19 02:25:53;;;;;;;7.28;5.13;;;14.50;99.90;;;;;;5018082;28;20037;-84
2022/10/19 02:28:20;;;;;;;11.18;5.40;;;14.50;99.90;;;;;;5017989;28;20084;-84
2022/10/19 02:30:46;;;;;;;6.57;4.85;;;14.50;99.90;;;;;;5036214;28;20095;-83
2022/10/19 02:33:12;;;;;;;6.63;4.63;;;14.50;99.90;;;;;;5035818;28;20080;-83
2022/10/19 02:35:38;;;;;;;6.63;4.78;;;14.50;99.90;;;;;;5018075;28;20025;-83
2022/10/19 02:38:06;;;;;;;7.90;4.47;;;14.40;99.90;;;;;;5017995;28;20032;-84
2022/10/19 02:40:36;;;;;;;7.00;4.07;;;14.40;99.90;;;;;;5017954;28;20098;-83
2022/10/19 02:43:06;;;;;;;4.88;4.13;;;14.30;99.90;;;;;;5035792;28;20021;-85
2022/10/19 02:45:36;;;;;;;6.90;4.45;;;14.20;99.90;;;;;;5017847;28;20030;-84
2022/10/19 02:48:07;;;;;;;6.75;4.32;;;14.10;99.90;;;;;;5034587;28;20492;-83
2022/10/19 02:50:33;;;;;;;8.70;4.50;;;14.00;99.90;;;;;;5017954;28;20457;-85
2022/10/19 02:52:59;;;;;;;5.05;4.13;;;13.90;99.90;;;;;;5017943;28;20027;-83
2022/10/19 02:55:25;;;;;;;5.82;4.13;;;13.80;99.90;;;;;;5017642;28;20543;-83
2022/10/19 02:57:50;;;;;;;6.97;4.18;;;13.70;99.90;;;;;;5035141;28;20022;-82
2022/10/19 03:00:16;;;;;;;5.43;3.85;;;13.60;99.90;;;;;;5017524;28;20030;-83
2022/10/19 03:02:42;;;;;;;4.97;3.92;;;13.60;99.90;;;;;;5017505;28;20545;-82
2022/10/19 03:05:09;;;;;;;6.40;4.68;;;13.50;99.90;;;;;;5034939;28;20028;-84
2022/10/19 03:07:34;;;;;;;7.00;3.88;;;13.40;99.90;;;;;;5035318;28;20030;-82
2022/10/19 03:10:00;;;;;;;6.85;4.13;;;13.30;99.90;;;;;;5034811;28;20107;-83
2022/10/19 03:12:26;;;;;;;8.50;4.65;;;13.20;99.90;;;;;;5017136;28;20083;-83
2022/10/19 03:14:52;;;;;;;6.97;4.40;;;13.20;99.90;;;;;;5034666;28;20056;-83
2022/10/19 03:17:17;;;;;;;7.15;4.28;;;13.10;99.90;;;;;;5034939;28;20034;-83
2022/10/19 03:19:43;;;;;;;5.68;4.25;;;13.00;99.90;;;;;;5017445;28;20029;-84
2022/10/19 03:22:09;;;;;;;6.28;4.35;;;13.00;99.90;;;;;;5017146;28;20029;-83
2022/10/19 03:24:35;;;;;;;8.00;4.70;;;12.90;99.90;;;;;;5016953;28;20025;-84
2022/10/19 03:27:00;;;;;;;10.85;4.57;;;12.80;99.90;;;;;;5034507;28;20032;-84
2022/10/19 03:29:26;;;;;;;6.18;4.50;;;12.80;99.90;;;;;;5034188;28;20037;-83
2022/10/19 03:31:52;;;;;;;8.48;3.90;;;12.70;99.90;;;;;;5034390;28;20029;-81
2022/10/19 03:34:18;;;;;;;7.32;4.00;;;12.70;99.90;;;;;;5034380;28;20029;-82
2022/10/19 03:36:43;;;;;;;6.32;3.97;;;12.60;99.90;;;;;;5034419;28;20096;-81
2022/10/19 03:39:12;;;;;;;6.22;4.85;;;12.50;99.90;;;;;;5034580;28;20041;-82
2022/10/19 03:41:39;;;;;;;8.20;4.40;;;12.50;99.90;;;;;;5017288;28;20424;-82
2022/10/19 03:44:06;;;;;;;14.68;3.72;;;12.40;99.90;;;;;;5034176;28;20057;-82
2022/10/19 03:46:32;;;;;;;8.02;3.58;;;12.40;99.90;;;;;;5034909;28;20037;-82
2022/10/19 03:48:58;;;;;;;8.43;4.40;;;12.20;99.90;;;;;;5036152;28;20108;-81
2022/10/19 03:51:26;;;;;;;7.90;4.07;;;12.20;99.90;;;;;;5020258;28;20457;-81
2022/10/19 03:53:53;;;;;;;21.33;4.85;;;12.10;99.90;;;;;;5039044;28;20069;-81
2022/10/19 03:56:21;;;;;;;7.35;4.10;;;12.10;99.90;;;;;;5040829;28;20045;-81
2022/10/19 03:58:49;;;;;;;11.95;5.35;;;12.00;99.90;;;;;;5021351;28;20029;-80
2022/10/19 04:01:18;;;;;;;10.10;4.50;;;12.00;99.90;;;;;;5037659;28;20071;-81
2022/10/19 04:03:44;;;;;;;9.52;4.40;;;11.90;99.90;;;;;;5022818;28;20481;-78
2022/10/19 04:06:13;;;;;;;10.18;4.85;;;11.90;99.90;;;;;;5020888;28;20045;-79
2022/10/19 04:08:39;;;;;;;9.40;5.05;;;11.90;99.90;;;;;;5035648;28;20101;-79
2022/10/19 04:11:08;;;;;;;13.02;4.57;;;11.90;99.90;;;;;;5017526;28;20025;-82
2022/10/19 04:13:34;;;;;;;7.53;5.00;;;11.80;99.90;;;;;;5034895;28;20022;-80
2022/10/19 04:16:00;;;;;;;10.30;5.53;;;11.80;99.90;;;;;;5034634;28;20037;-85
2022/10/19 04:18:26;;;;;;;8.60;4.80;;;11.90;99.90;;;;;;5038825;28;20036;-79
2022/10/19 04:21:00;;;;;;;6.65;4.30;;;11.90;99.90;;;;;;5018927;28;20079;-82
2022/10/19 04:23:27;;;;;;;6.45;4.53;;;11.90;99.90;;;;;;5019636;28;20025;-82
2022/10/19 04:26:02;;;;;;;7.75;4.47;;;11.90;99.90;;;;;;5001284;28;20113;-80
2022/10/19 04:28:29;;;;;;;6.18;4.53;;;11.90;99.90;;;;;;5016338;28;20473;-82
2022/10/19 04:30:54;;;;;;;9.00;4.65;;;11.80;99.90;;;;;;5034150;28;20030;-90
2022/10/19 04:33:20;;;;;;;8.10;4.70;;;11.90;99.90;;;;;;5016679;28;20052;-87
2022/10/19 04:35:46;;;;;;;10.63;5.00;;;11.90;99.90;;;;;;5034210;28;20029;-82
2022/10/19 04:38:12;;;;;;;9.70;4.43;;;11.90;99.90;;;;;;5016276;28;20048;-84
2022/10/19 04:40:38;;;;;;;8.40;5.18;;;11.90;99.90;;;;;;5016406;28;20080;-82
2022/10/19 04:43:04;;;;;;;14.15;5.38;;;11.90;99.90;;;;;;5033754;28;20109;-83
2022/10/19 04:45:30;;;;;;;7.07;4.35;;;11.80;99.90;;;;;;5033828;28;20101;-83
2022/10/19 04:47:56;;;;;;;7.93;4.20;;;11.80;99.90;;;;;;5033738;28;20112;-81
2022/10/19 04:50:22;;;;;;;9.82;5.20;;;11.80;99.90;;;;;;5033862;28;20510;-87
2022/10/19 04:52:48;;;;;;;8.77;4.90;;;11.70;99.90;;;;;;5016524;28;20029;-84
2022/10/19 04:55:14;;;;;;;11.77;5.47;;;11.70;99.90;;;;;;5033967;28;20029;-85
2022/10/19 04:57:39;;;;;;;9.75;4.72;;;11.70;99.90;;;;;;5033818;28;20021;-86
2022/10/19 05:00:06;;;;;;;7.60;4.43;;;11.70;99.90;;;;;;5016510;28;20037;-87
2022/10/19 05:02:31;;;;;;;14.65;4.25;;;11.70;99.90;;;;;;5016404;28;20029;-86
2022/10/19 05:04:57;;;;;;;10.57;4.07;;;11.70;99.90;;;;;;5035022;28;20098;-86
2022/10/19 05:07:22;;;;;;;8.60;4.60;;;11.60;99.90;;;;;;5016326;28;20431;-86
2022/10/19 05:09:48;;;;;;;10.18;4.97;;;11.60;99.90;;;;;;5033159;28;20106;-83
2022/10/19 05:12:14;;;;;;;7.10;4.72;;;11.50;99.90;;;;;;5018220;28;20124;-86
2022/10/19 05:14:39;;;;;;;9.18;4.38;;;11.40;99.90;;;;;;5037434;28;20068;-88
2022/10/19 05:17:05;;;;;;;8.15;4.70;;;11.30;99.90;;;;;;5038636;28;20029;-87
2022/10/19 05:19:31;;;;;;;9.80;4.80;;;11.20;99.90;;;;;;5037603;28;20025;-85
2022/10/19 05:21:56;;;;;;;11.20;5.13;;;11.10;99.90;;;;;;5019859;28;20029;-85
2022/10/19 05:24:22;;;;;;;6.88;4.65;;;11.10;99.90;;;;;;5038109;28;20454;-85
2022/10/19 05:26:48;;;;;;;9.30;5.53;;;11.00;99.90;;;;;;5019464;28;20026;-74
2022/10/19 05:29:13;;;;;;;12.23;5.30;;;11.00;99.90;;;;;;5037472;28;20044;-86
2022/10/19 05:31:40;;;;;;;6.22;4.70;;;11.00;99.90;;;;;;5036997;28;20524;-85
2022/10/19 05:34:05;;;;;;;9.43;5.45;;;11.00;99.90;;;;;;5036808;28;20070;-87
2022/10/19 05:36:36;;;;;;;6.65;4.65;;;11.00;99.90;;;;;;5036773;28;20125;-82
2022/10/19 05:39:05;;;;;;;13.23;5.47;;;10.90;99.90;;;;;;5018864;28;20034;-82
2022/10/19 05:41:31;;;;;;;12.63;5.72;;;10.90;99.90;;;;;;5036652;28;20053;-81
2022/10/19 05:43:59;;;;;;;10.30;5.45;;;10.90;99.90;;;;;;5019763;28;20508;-86
2022/10/19 05:46:25;;;;;;;7.10;5.22;;;10.90;99.90;;;;;;5019317;28;20029;-85
2022/10/19 05:48:51;;;;;;;9.40;4.85;;;10.90;99.90;;;;;;5036662;28;20079;-86
2022/10/19 05:51:18;;;;;;;9.13;4.97;;;10.90;99.90;;;;;;5036881;28;20105;-85
2022/10/19 05:53:44;;;;;;;18.05;5.82;;;10.90;99.90;;;;;;5019483;28;20479;-84
2022/10/19 05:56:17;;;;;;;9.70;5.63;;;10.90;99.90;;;;;;5018772;28;20112;-86
2022/10/19 05:58:43;;;;;;;12.50;5.65;;;10.90;99.90;;;;;;5019408;28;20036;-84
2022/10/19 06:01:09;;;;;;;10.10;5.32;;;10.90;99.90;;;;;;5019423;28;20416;-85
2022/10/19 06:03:35;;;;;;;11.90;6.18;;;10.90;99.90;;;;;;5018656;28;20083;-86
2022/10/19 06:06:08;;;;;;;9.23;5.65;;;10.90;99.90;;;;;;5036842;28;20021;-84
2022/10/19 06:08:35;;;;;;;11.82;6.18;;;10.90;99.90;;;;;;5036501;28;20376;-84
2022/10/19 06:11:09;;;;;;;16.25;5.97;;;10.90;99.90;;;;;;5036682;28;20466;-84
2022/10/19 06:13:36;;;;;;;11.50;6.22;;;10.90;99.90;;;;;;5018887;28;20021;-86
2022/10/19 06:16:03;;;;;;;13.82;6.50;;;10.90;99.90;;;;;;5036432;28;20032;-86
2022/10/19 06:18:28;;;;;;;14.40;6.88;;;10.90;99.90;;;;;;5019184;28;20107;-86
2022/10/19 06:20:54;;;;;;;13.10;7.10;;;11.00;99.90;;;;;;5018658;28;20450;-86
2022/10/19 06:23:20;;;;;;;11.73;7.30;;;11.00;99.90;;;;;;5017698;28;20026;-86
2022/10/19 06:25:46;;;;;;;16.92;7.32;;;11.00;99.90;;;;;;5019271;28;20112;-86
2022/10/19 06:28:12;;;;;;;13.60;7.00;;;11.10;99.90;;;;;;5036830;28;20033;-86
2022/10/19 06:30:39;;;;;;;14.93;6.70;;;11.30;99.90;;;;;;5022958;28;20087;-87
2022/10/19 06:33:05;;;;;;;14.40;6.60;;;11.40;99.90;;;;;;5025923;28;20116;-86
2022/10/19 06:35:31;;;;;;;12.95;6.13;;;11.60;99.90;;;;;;5039965;28;20033;-87
2022/10/19 06:37:57;;;;;;;10.13;5.90;;;11.80;99.90;;;;;;5019191;28;20124;-87
2022/10/19 06:40:23;;;;;;;11.55;4.97;;;12.10;99.90;;;;;;5036232;28;20025;-88
2022/10/19 06:42:49;;;;;;;8.02;4.40;;;12.30;99.90;;;;;;5018725;28;20025;-86
2022/10/19 06:45:15;;;;;;;8.18;4.32;;;12.50;99.90;;;;;;5036037;28;20437;-87
2022/10/19 06:47:41;;;;;;;8.57;4.28;;;12.80;99.90;;;;;;5035887;28;20025;-87
2022/10/19 06:50:07;;;;;;;11.40;5.25;;;13.00;99.90;;;;;;5035655;28;20055;-86
2022/10/19 06:52:34;;;;;;;9.18;5.40;;;13.30;99.90;;;;;;5018133;28;20057;-88
2022/10/19 06:55:00;;;;;;;8.88;4.78;;;13.50;99.90;;;;;;5018088;28;20063;-87
2022/10/19 06:57:27;;;;;;;5.97;4.47;;;13.80;99.90;;;;;;5035873;28;20034;-87
2022/10/19 06:59:53;;;;;;;6.55;4.85;;;14.00;99.90;;;;;;5017951;28;20029;-89
2022/10/19 07:02:19;;;;;;;7.28;4.65;;;14.20;99.90;;;;;;5018544;28;20028;-87
2022/10/19 07:04:44;;;;;;;6.30;4.32;;;14.50;99.90;;;;;;5018380;28;20063;-87
2022/10/19 07:07:10;;;;;;;11.38;4.70;;;14.80;99.90;;;;;;5017989;28;20033;-87
2022/10/19 07:09:35;;;;;;;5.40;4.75;;;15.00;99.90;;;;;;5017602;28;20053;-88
2022/10/19 07:12:01;;;;;;;7.35;4.68;;;15.20;99.90;;;;;;5017741;28;20381;-87
2022/10/19 07:14:30;;;;;;;6.85;4.95;;;15.40;99.90;;;;;;5035443;28;20092;-88
2022/10/19 07:16:56;;;;;;;6.18;4.07;;;15.60;99.90;;;;;;5017562;28;20029;-87
2022/10/19 07:19:25;;;;;;;7.00;4.13;;;15.90;99.90;;;;;;5018063;28;20029;-86
2022/10/19 07:21:51;;;;;;;7.68;4.00;;;16.10;99.90;;;;;;5017590;28;20025;-87
2022/10/19 07:24:18;;;;;;;6.50;4.03;;;16.30;99.90;;;;;;5035287;28;20029;-86
2022/10/19 07:26:43;;;;;;;6.25;3.90;;;16.60;99.90;;;;;;5017915;28;20033;-87
2022/10/19 07:29:09;;;;;;;5.13;3.40;;;16.80;99.90;;;;;;5017637;28;20363;-86
2022/10/19 07:31:35;;;;;;;7.28;3.45;;;17.00;99.90;;;;;;5035218;28;20524;-87
2022/10/19 07:34:03;;;;;;;4.68;3.20;;;17.40;99.90;;;;;;5017189;28;20026;-86
2022/10/19 07:36:32;;;;;;;5.00;3.20;;;17.80;99.90;;;;;;5034852;28;20033;-86
2022/10/19 07:38:59;;;;;;;5.50;3.00;;;18.00;99.90;;;;;;5017293;28;20040;-86
2022/10/19 07:41:25;;;;;;;7.25;3.20;;;18.10;99.90;;;;;;5017419;28;20025;-86
2022/10/19 07:43:52;;;;;;;5.03;3.00;;;18.50;99.90;;;;;;5034854;28;20025;-87
2022/10/19 07:46:21;;;;;;;4.50;3.35;;;18.60;99.90;;;;;;5017452;28;20029;-85
2022/10/19 07:48:47;;;;;;;3.42;2.30;;;18.80;99.90;;;;;;5034344;28;20520;-86
2022/10/19 07:51:14;;;;;;;2.88;2.53;;;18.30;99.90;;;;;;5035084;28;20037;-86
2022/10/19 07:53:41;;;;;;;3.50;1.90;;;18.10;99.90;;;;;;5017787;28;20022;-85
2022/10/19 07:56:14;;;;;;;2.38;1.90;;;18.10;99.90;;;;;;5017169;28;20083;-85
2022/10/19 07:58:40;;;;;;;2.45;2.05;;;18.10;99.90;;;;;;5017071;28;20354;-85
2022/10/19 08:01:12;;;;;;;2.50;2.30;;;17.90;99.90;;;;;;5034570;28;20033;-85
2022/10/19 08:03:38;;;;;;;2.47;2.05;;;17.90;99.90;;;;;;5034698;28;20025;-85
2022/10/19 08:06:09;;;;;;;3.05;2.08;;;17.90;99.90;;;;;;5016965;28;20044;-86
2022/10/19 08:08:35;;;;;;;2.53;2.33;;;18.00;99.90;;;;;;5016822;28;20053;-86
2022/10/19 08:11:08;;;;;;;3.35;2.20;;;18.10;99.90;;;;;;5016761;28;20052;-85
2022/10/19 08:13:34;;;;;;;3.47;1.92;;;18.20;99.90;;;;;;5034443;28;20026;-85
2022/10/19 08:15:59;;;;;;;2.03;1.83;;;18.50;99.90;;;;;;5034563;28;20466;-85
2022/10/19 08:18:25;;;;;;;2.10;1.90;;;18.60;99.90;;;;;;5034698;28;20072;-86
2022/10/19 08:20:51;;;;;;;3.08;1.88;;;18.30;99.90;;;;;;5034307;28;20025;-86
2022/10/19 08:23:16;;;;;;;2.25;2.03;;;18.00;99.90;;;;;;5016893;28;20130;-86
2022/10/19 08:25:42;;;;;;;4.35;2.08;;;17.90;99.90;;;;;;5034702;28;20026;-86
2022/10/19 08:28:08;;;;;;;3.42;2.70;;;17.70;99.90;;;;;;5016623;28;20116;-86
2022/10/19 08:30:34;;;;;;;2.75;2.53;;;17.60;99.90;;;;;;5017055;28;20029;-86
2022/10/19 08:33:00;;;;;;;3.22;2.90;;;17.90;99.90;;;;;;5016572;28;20029;-85
2022/10/19 08:35:26;;;;;;;5.10;3.05;;;18.10;99.90;;;;;;5033983;28;20151;-86
2022/10/19 08:37:51;;;;;;;4.95;2.33;;;18.10;99.90;;;;;;5034198;28;20440;-86
2022/10/19 08:40:22;;;;;;;2.60;2.40;;;18.40;99.90;;;;;;5016809;28;20461;-84
2022/10/19 08:43:13;;;;;;;3.22;2.80;;;18.80;99.90;;;;;;5034163;28;20036;-84
2022/10/19 08:46:00;;;;;;;3.67;2.63;;;18.80;99.90;;;;;;5017007;28;20072;-85
2022/10/19 08:48:35;;;;;;;3.25;2.95;;;18.90;99.90;;;;;;5038053;28;20465;-85
2022/10/19 08:51:04;;;;;;;3.60;2.35;;;18.70;99.90;;;;;;5041993;28;20030;-84
2022/10/19 08:53:41;;;;;;;3.65;2.60;;;18.30;99.90;;;;;;5024614;28;20116;-85
2022/10/19 08:56:12;;;;;;;2.60;2.30;;;18.20;99.90;;;;;;5042272;28;20078;-85
2022/10/19 08:58:54;;;;;;;2.53;2.33;;;18.30;99.90;;;;;;5020999;28;20025;-85
2022/10/19 09:01:38;;;;;;;2.83;2.50;;;18.30;99.90;;;;;;5020303;28;20022;-85
2022/10/19 09:04:13;;;;;;;4.90;2.60;;;19.10;99.90;;;;;;5019838;28;20018;-85
2022/10/19 09:06:47;;;;;;;3.30;2.35;;;19.70;99.90;;;;;;5037370;28;20104;-85
2022/10/19 09:09:14;;;;;;;5.10;2.10;;;19.80;99.90;;;;;;5037244;28;20049;-84
2022/10/19 09:11:45;;;;;;;2.30;1.83;;;20.40;99.90;;;;;;5037156;28;20128;-83
2022/10/19 09:14:13;;;;;;;2.20;2.00;;;20.80;99.90;;;;;;5037264;28;20026;-84
2022/10/19 09:16:39;;;;;;;3.50;1.90;;;20.10;99.90;;;;;;5037501;28;20483;-84
2022/10/19 09:19:24;;;;;;;3.10;1.80;;;19.80;99.90;;;;;;5037446;28;20112;-84
2022/10/19 09:22:03;;;;;;;3.45;1.92;;;19.70;99.90;;;;;;5037519;28;20052;-84
2022/10/19 09:24:51;;;;;;;2.80;2.30;;;19.40;99.90;;;;;;5037935;28;20109;-84
2022/10/19 09:27:22;;;;;;;5.53;2.87;;;19.90;99.90;;;;;;5037233;28;20413;-83
2022/10/19 09:30:02;;;;;;;10.15;3.10;;;19.80;99.90;;;;;;5019696;28;20461;-83
2022/10/19 09:32:33;;;;;;;4.70;3.55;;;19.50;99.90;;;;;;5036850;28;20112;-83
2022/10/19 09:35:04;;;;;;;4.53;2.70;;;19.30;99.90;;;;;;5018980;28;20029;-83
2022/10/19 09:37:31;;;;;;;7.22;3.30;;;19.40;99.90;;;;;;5036678;28;20437;-83
2022/10/19 09:39:57;;;;;;;6.43;3.08;;;19.60;99.90;;;;;;5036666;28;20037;-83
2022/10/19 09:42:29;;;;;;;3.58;3.28;;;20.20;99.90;;;;;;5018899;28;20461;-84
2022/10/19 09:44:55;;;;;;;5.22;3.05;;;20.60;99.90;;;;;;5019506;28;20026;-84
2022/10/19 09:47:38;;;;;;;3.45;2.88;;;20.90;99.00;;;;;;5036624;28;20060;-82
2022/10/19 09:50:24;;;;;;;4.07;3.45;;;21.30;98.60;;;;;;5036236;28;20033;-83
2022/10/19 09:52:55;;;;;;;4.32;2.95;;;21.60;97.30;;;;;;5018875;28;20477;-83
2022/10/19 09:55:40;;;;;;;2.83;2.30;;;22.00;96.80;;;;;;5019070;28;20076;-83
2022/10/19 09:58:12;;;;;;;2.40;2.05;;;22.70;94.70;;;;;;5018365;28;20518;-83
2022/10/19 10:00:42;;;;;;;5.30;2.70;;;22.60;93.70;;;;;;5018627;28;20048;-83
2022/10/19 10:03:31;;;;;;;2.65;2.42;;;22.40;94.20;;;;;;5018757;28;20028;-82
2022/10/19 10:06:13;;;;;;;2.63;2.20;;;21.70;93.90;;;;;;5003239;28;20037;-83
2022/10/19 10:08:51;;;;;;;2.60;2.40;;;21.30;94.30;;;;;;5018167;28;20076;-84
2022/10/19 10:11:31;;;;;;;2.88;2.47;;;20.90;94.90;;;;;;5036169;28;20075;-83
2022/10/19 10:14:02;;;;;;;3.20;2.35;;;21.50;94.30;;;;;;5036529;28;20037;-83
2022/10/19 10:16:29;;;;;;;2.65;2.40;;;22.50;92.90;;;;;;5035853;28;20022;-82
2022/10/19 10:19:04;;;;;;;2.67;2.30;;;22.80;91.40;;;;;;5017894;28;20040;-83
2022/10/19 10:21:51;;;;;;;2.55;2.35;;;22.20;92.00;;;;;;5018064;28;20132;-82
2022/10/19 10:24:20;;;;;;;2.28;2.08;;;21.90;92.80;;;;;;5018393;28;20025;-82
2022/10/19 10:26:48;;;;;;;2.63;2.42;;;22.00;92.40;;;;;;5035710;28;20112;-81
2022/10/19 10:29:22;;;;;;;3.03;2.60;;;21.30;92.00;;;;;;5035498;28;20026;-82
2022/10/19 10:32:03;;;;;;;4.07;2.13;;;21.10;93.10;;;;;;5035712;28;20030;-83
2022/10/19 10:34:39;;;;;;;2.58;2.35;;;21.70;92.80;;;;;;5018017;28;20030;-82
2022/10/19 10:37:09;;;;;;;2.47;1.90;;;22.50;91.00;;;;;;5017752;28;20030;-82
2022/10/19 10:39:42;;;;;;;2.85;2.55;;;22.50;90.10;;;;;;5018110;28;20116;-82
2022/10/19 10:42:17;;;;;;;4.03;2.25;;;22.20;90.60;;;;;;5017796;28;20053;-82
2022/10/19 10:44:51;;;;;;;3.00;1.88;;;22.90;90.00;;;;;;5017847;28;20461;-82
2022/10/19 10:47:21;;;;;;;1.90;1.80;;;23.60;87.40;;;;;;5035182;28;20057;-81
2022/10/19 10:50:18;;;;;;;1.83;1.70;;;23.80;84.70;;;;;;5017762;28;20456;-82
2022/10/19 10:52:59;;;;;;;3.38;2.22;;;24.70;81.30;;;;;;4983824;28;20044;-82
2022/10/19 10:55:25;;;;;;;2.60;2.40;;;24.40;78.50;;;;;;5017561;28;20439;-82
2022/10/19 10:58:01;;;;;;;3.20;2.10;;;24.40;79.40;;;;;;5035100;28;20060;-82
2022/10/19 11:00:28;;;;;;;2.88;1.85;;;25.10;77.20;;;;;;5035193;28;20444;-82
2022/10/19 11:03:06;;;;;;;2.30;1.92;;;25.50;74.30;;;;;;5017286;28;20144;-81
2022/10/19 11:05:34;;;;;;;;;;;24.70;73.80;;;;;;5017694;28;20377;-82
2022/10/19 11:08:22;;;;;;;4.65;1.90;;;24.30;77.10;;;;;;5034998;28;20268;-81
2022/10/19 11:10:58;;;;;;;2.40;2.10;;;25.00;75.10;;;;;;5016804;28;20124;-82
2022/10/19 11:13:53;;;;;;;2.55;2.20;;;25.80;71.30;;;;;;5035075;28;20025;-81
2022/10/19 11:16:25;;;;;;;2.05;1.85;;;25.70;70.80;;;;;;4999683;28;20547;-82
2022/10/19 11:18:59;;;;;;;2.03;1.80;;;25.80;69.00;;;;;;5034750;28;20025;-81
2022/10/19 11:21:35;;;;;;;3.13;2.03;;;26.40;68.50;;;;;;5017436;28;20064;-81
2022/10/19 11:24:20;;;;;;;3.65;1.70;;;27.10;64.50;;;;;;5034234;28;20029;-81
2022/10/19 11:27:14;;;;;;;3.42;1.92;;;27.00;64.80;;;;;;5034859;28;20026;-81
2022/10/19 11:30:08;;;;;;;2.42;2.00;;;27.50;62.40;;;;;;5034796;28;20038;-81
2022/10/19 11:33:05;;;;;;;2.40;1.75;;;27.40;62.40;;;;;;5016736;28;20026;-81
2022/10/19 11:35:52;;;;;;;1.70;1.60;;;27.00;62.70;;;;;;5016648;28;20033;-82
2022/10/19 11:38:47;;;;;;;2.05;1.85;;;27.70;61.60;;;;;;5016254;28;20036;-81
2022/10/19 11:41:41;;;;;;;2.10;1.83;;;27.50;60.60;;;;;;5034147;28;20370;-81
2022/10/19 11:44:26;;;;;;;4.65;1.75;;;28.40;57.60;;;;;;5016263;28;20031;-81
2022/10/19 11:46:58;;;;;;;6.88;1.60;;;27.50;58.00;;;;;;5016393;28;20060;-81
2022/10/19 11:49:57;;;;;;;2.75;1.70;;;26.80;60.40;;;;;;5016536;28;20038;-81
2022/10/19 11:52:22;;;;;;;;;;;27.50;59.30;;;;;;5032553;28;20041;-80
2022/10/19 11:55:00;;;;;;;1.63;1.52;;;27.90;57.40;;;;;;5033926;28;20284;-81
2022/10/19 11:57:36;;;;;;;1.77;1.10;;;27.70;56.80;;;;;;5016429;28;20029;-81
2022/10/19 12:00:14;;;;;;;1.02;1.00;;;27.90;57.00;;;;;;5033867;28;20166;-81
2022/10/19 12:03:09;;;;;;;3.03;1.40;;;27.90;55.80;;;;;;5033852;28;20108;-81
2022/10/19 12:06:17;;;;;;;3.13;1.60;;;27.90;54.60;;;;;;4995112;28;20120;-81
2022/10/19 12:09:11;;;;;;;1.60;1.50;;;26.90;56.10;;;;;;5012475;28;20088;-81
2022/10/19 12:11:57;;;;;;;2.22;1.55;;;25.90;57.40;;;;;;5013727;28;20026;-81
2022/10/19 12:14:29;;;;;;;2.78;1.52;;;25.30;58.10;;;;;;5013684;28;20026;-80
2022/10/19 12:16:58;;;;;;;4.43;1.65;;;23.90;59.30;;;;;;5013284;28;20044;-80
2022/10/19 12:19:39;;;;;;;2.13;1.42;;;23.20;62.30;;;;;;5012718;28;20056;-79
2022/10/19 12:22:11;;;;;;;1.45;1.35;;;22.60;63.70;;;;;;5017566;28;20053;-78
2022/10/19 12:24:36;;;;;;;5.72;1.95;;;22.90;64.40;;;;;;5017152;28;20034;-78
2022/10/19 12:27:03;;;;;;;2.35;1.60;;;23.60;62.60;;;;;;5017782;28;20022;-78
2022/10/19 12:29:38;;;;;;;1.65;1.55;;;24.00;61.40;;;;;;5016406;28;20040;-78
2022/10/19 12:32:05;;;;;;;1.40;1.30;;;24.70;60.20;;;;;;5017551;28;20038;-79
2022/10/19 12:34:47;;;;;;;1.45;1.35;;;24.60;59.10;;;;;;5016229;28;20113;-77
2022/10/19 12:37:31;;;;;;;3.08;1.48;;;25.30;57.60;;;;;;5018256;28;20025;-76
2022/10/19 12:40:05;;;;;;;1.20;1.20;;;25.40;56.70;;;;;;5017339;28;20395;-75
2022/10/19 12:42:39;;;;;;;4.07;1.30;;;25.20;57.30;;;;;;5016287;28;20030;-77
2022/10/19 12:45:20;;;;;;;2.05;1.20;;;25.60;56.60;;;;;;5016370;28;20022;-76
2022/10/19 12:48:09;;;;;;;5.18;1.65;;;25.50;56.70;;;;;;5015850;28;20109;-76
2022/10/19 12:50:47;;;;;;;3.70;1.42;;;25.50;55.40;;;;;;5016012;28;20421;-78
2022/10/19 12:53:36;;;;;;;4.70;1.55;;;25.20;55.40;;;;;;5016405;28;20068;-77
2022/10/19 12:56:21;;;;;;;3.33;2.10;;;25.20;54.70;;;;;;5017383;28;20026;-77
2022/10/19 12:59:01;;;;;;;2.40;1.73;;;25.70;54.50;;;;;;5015977;28;20101;-77
2022/10/19 13:01:32;;;;;;;2.80;1.38;;;26.50;51.40;;;;;;5017438;28;20244;-76
2022/10/19 13:04:12;;;;;;;3.65;2.60;;;27.00;51.70;;;;;;5015972;28;20044;-78
2022/10/19 13:06:57;;;;;;;2.97;2.67;;;26.50;53.00;;;;;;5015727;28;20022;-77